createdAt,value
2023-01-09T00:01:45.762Z,88.85
2023-01-09T00:04:14.530Z,88.66
2023-01-09T00:06:54.068Z,88.55
2023-01-09T00:09:24.615Z,88.70
2023-01-09T00:11:55.126Z,88.55
2023-01-09T00:14:24.251Z,88.48
2023-01-09T00:16:55.711Z,88.43
2023-01-09T00:19:23.923Z,88.60
2023-01-09T00:21:52.201Z,88.58
2023-01-09T00:24:20.585Z,88.67
2023-01-09T00:26:48.762Z,88.75
2023-01-09T00:29:18.275Z,88.70
2023-01-09T00:31:46.660Z,88.81
2023-01-09T00:34:15.141Z,88.63
2023-01-09T00:36:44.556Z,88.54
2023-01-09T00:39:12.729Z,88.66
2023-01-09T00:41:46.508Z,88.77
2023-01-09T00:44:22.721Z,88.78
2023-01-09T00:46:56.391Z,88.50
2023-01-09T00:49:25.736Z,89.02
2023-01-09T00:51:55.364Z,88.95
2023-01-09T00:54:23.914Z,88.80
2023-01-09T00:56:52.208Z,88.89
2023-01-09T00:59:21.099Z,88.83
2023-01-09T01:01:49.611Z,88.86
2023-01-09T01:04:36.894Z,88.81
2023-01-09T01:07:23.707Z,88.93
2023-01-09T01:09:51.781Z,88.93
2023-01-09T01:12:20.163Z,89.86
2023-01-09T01:14:48.338Z,89.59
2023-01-09T01:17:16.529Z,89.77
2023-01-09T01:19:44.696Z,90.04
2023-01-09T01:22:12.993Z,90.55
2023-01-09T01:24:41.468Z,90.82
2023-01-09T01:27:10.168Z,91.33
2023-01-09T01:29:39.063Z,91.77
2023-01-09T01:32:08.270Z,91.92
2023-01-09T01:34:37.049Z,92.11
2023-01-09T01:37:05.775Z,92.72
2023-01-09T01:39:34.027Z,92.98
2023-01-09T01:42:06.913Z,93.03
2023-01-09T01:45:06.224Z,93.54
2023-01-09T01:47:47.275Z,93.31
2023-01-09T01:50:18.323Z,93.80
2023-01-09T01:52:52.843Z,93.54
2023-01-09T01:55:21.896Z,93.60
2023-01-09T01:57:57.405Z,93.72
2023-01-09T02:00:37.407Z,94.15
2023-01-09T02:03:07.664Z,93.58
2023-01-09T02:05:38.251Z,93.65
2023-01-09T02:08:08.232Z,93.96
2023-01-09T02:10:39.244Z,94.01
2023-01-09T02:13:09.347Z,93.98
2023-01-09T02:16:02.023Z,94.02
2023-01-09T02:18:48.330Z,94.33
2023-01-09T02:21:33.389Z,94.29
2023-01-09T02:24:23.179Z,94.84
2023-01-09T02:27:07.609Z,94.79
2023-01-09T02:29:42.342Z,94.87
2023-01-09T02:32:27.915Z,95.15
2023-01-09T02:35:17.792Z,95.21
2023-01-09T02:38:06.451Z,95.51
2023-01-09T02:41:04.707Z,95.72
2023-01-09T02:43:33.350Z,95.87
2023-01-09T02:46:01.747Z,95.74
2023-01-09T02:48:31.450Z,96.14
2023-01-09T02:51:08.577Z,96.02
2023-01-09T02:53:42.793Z,95.72
2023-01-09T02:56:17.012Z,96.23
2023-01-09T02:58:50.611Z,96.33
2023-01-09T03:01:24.600Z,96.38
2023-01-09T03:04:19.821Z,95.82
2023-01-09T03:06:59.154Z,95.86
2023-01-09T03:09:31.906Z,95.93
2023-01-09T03:12:09.443Z,95.79
2023-01-09T03:14:43.311Z,95.50
2023-01-09T03:17:15.413Z,95.30
2023-01-09T03:19:46.558Z,95.05
2023-01-09T03:22:14.740Z,95.26
2023-01-09T03:24:43.126Z,95.35
2023-01-09T03:27:11.510Z,95.12
2023-01-09T03:29:40.304Z,94.95
2023-01-09T03:32:09.198Z,94.96
2023-01-09T03:34:37.909Z,94.64
2023-01-09T03:37:06.686Z,94.73
2023-01-09T03:39:35.072Z,94.78
2023-01-09T03:42:03.555Z,94.59
2023-01-09T03:44:31.740Z,94.57
2023-01-09T03:46:59.914Z,94.45
2023-01-09T03:49:28.093Z,94.25
2023-01-09T03:51:56.378Z,93.49
2023-01-09T03:54:24.760Z,93.46
2023-01-09T03:56:53.457Z,93.53
2023-01-09T03:59:22.048Z,93.84
2023-01-09T04:01:50.501Z,93.53
2023-01-09T04:04:19.230Z,93.56
2023-01-09T04:06:47.504Z,93.78
2023-01-09T04:09:15.683Z,93.64
2023-01-09T04:11:44.068Z,93.50
2023-01-09T04:14:12.659Z,93.83
2023-01-09T04:16:41.863Z,93.55
2023-01-09T04:19:10.247Z,93.19
2023-01-09T04:21:38.422Z,92.70
2023-01-09T04:24:07.098Z,92.50
2023-01-09T04:26:35.294Z,91.55
2023-01-09T04:29:03.990Z,90.90
2023-01-09T04:31:32.651Z,89.67
2023-01-09T04:34:01.171Z,88.69
2023-01-09T04:36:29.754Z,88.06
2023-01-09T04:38:58.244Z,87.70
2023-01-09T04:41:46.168Z,87.24
2023-01-09T04:44:14.348Z,86.36
2023-01-09T04:46:42.738Z,86.17
2023-01-09T04:49:11.735Z,85.96
2023-01-09T04:51:40.116Z,85.22
2023-01-09T04:54:08.329Z,84.54
2023-01-09T04:56:37.317Z,84.34
2023-01-09T04:59:07.316Z,83.88
2023-01-09T05:01:36.374Z,83.98
2023-01-09T05:04:05.956Z,83.38
2023-01-09T05:06:34.618Z,83.28
2023-01-09T05:09:03.412Z,83.42
2023-01-09T05:11:31.797Z,82.99
2023-01-09T05:14:00.115Z,82.73
2023-01-09T05:16:28.336Z,82.75
2023-01-09T05:18:57.366Z,82.43
2023-01-09T05:21:25.644Z,82.20
2023-01-09T05:23:54.128Z,82.16
2023-01-09T05:26:24.289Z,81.71
2023-01-09T05:28:54.377Z,81.76
2023-01-09T05:31:25.146Z,81.66
2023-01-09T05:33:54.014Z,81.45
2023-01-09T05:36:22.817Z,81.32
2023-01-09T05:38:51.293Z,81.31
2023-01-09T05:41:19.784Z,80.72
2023-01-09T05:43:48.371Z,80.68
2023-01-09T05:46:16.547Z,80.59
2023-01-09T05:48:45.359Z,80.43
2023-01-09T05:51:13.722Z,80.54
2023-01-09T05:53:42.117Z,80.15
2023-01-09T05:56:11.814Z,79.89
2023-01-09T05:58:41.032Z,79.98
2023-01-09T06:01:09.583Z,79.86
2023-01-09T06:03:38.305Z,79.83
2023-01-09T06:06:07.510Z,79.69
2023-01-09T06:08:35.895Z,79.63
2023-01-09T06:11:04.290Z,79.28
2023-01-09T06:13:33.276Z,79.37
2023-01-09T06:16:01.830Z,79.43
2023-01-09T06:18:30.144Z,79.50
2023-01-09T06:20:58.643Z,79.05
2023-01-09T06:23:26.818Z,79.04
2023-01-09T06:25:55.098Z,78.94
2023-01-09T06:28:23.287Z,78.75
2023-01-09T06:30:52.640Z,78.58
2023-01-09T06:33:21.690Z,78.46
2023-01-09T06:35:50.168Z,78.51
2023-01-09T06:38:18.758Z,78.30
2023-01-09T06:40:47.141Z,78.39
2023-01-09T06:43:15.336Z,78.34
2023-01-09T06:45:43.957Z,78.43
2023-01-09T06:48:12.698Z,78.24
2023-01-09T06:50:41.302Z,77.72
2023-01-09T06:53:10.800Z,77.61
2023-01-09T06:55:39.082Z,77.13
2023-01-09T06:58:07.691Z,77.19
2023-01-09T07:00:36.883Z,77.26
2023-01-09T07:03:05.777Z,77.13
2023-01-09T07:05:40.087Z,77.03
2023-01-09T07:08:09.692Z,76.42
2023-01-09T07:10:37.886Z,76.64
2023-01-09T07:13:06.472Z,76.64
2023-01-09T07:15:35.068Z,76.08
2023-01-09T07:18:03.867Z,75.84
2023-01-09T07:20:32.254Z,75.56
2023-01-09T07:23:00.624Z,75.75
2023-01-09T07:25:28.808Z,75.67
2023-01-09T07:27:57.307Z,75.15
2023-01-09T07:30:25.779Z,74.79
2023-01-09T07:32:54.264Z,74.61
2023-01-09T07:35:22.655Z,74.58
2023-01-09T07:37:51.138Z,74.34
2023-01-09T07:40:19.832Z,74.45
2023-01-09T07:42:48.014Z,74.38
2023-01-09T07:45:16.289Z,74.40
2023-01-09T07:47:44.690Z,74.56
2023-01-09T07:50:13.465Z,74.66
2023-01-09T07:52:41.652Z,74.45
2023-01-09T07:55:10.409Z,74.13
2023-01-09T07:57:39.067Z,73.79
2023-01-09T08:00:13.511Z,73.74
2023-01-09T08:02:41.943Z,73.25
2023-01-09T08:05:14.908Z,73.26
2023-01-09T08:07:43.323Z,73.09
2023-01-09T08:10:12.358Z,72.83
2023-01-09T08:12:43.970Z,72.90
2023-01-09T08:15:13.452Z,72.55
2023-01-09T08:17:43.709Z,72.32
2023-01-09T08:20:15.019Z,72.00
2023-01-09T08:22:49.742Z,71.79
2023-01-09T08:25:18.583Z,71.66
2023-01-09T08:27:47.482Z,71.35
2023-01-09T08:30:17.625Z,71.27
2023-01-09T08:32:53.837Z,71.52
2023-01-09T08:35:22.255Z,71.26
2023-01-09T08:37:51.160Z,71.36
2023-01-09T08:40:19.842Z,71.20
2023-01-09T08:43:06.958Z,71.04
2023-01-09T08:45:54.266Z,71.00
2023-01-09T08:48:22.653Z,70.93
2023-01-09T08:50:51.248Z,70.75
2023-01-09T08:53:19.625Z,71.04
2023-01-09T08:55:47.906Z,70.66
2023-01-09T08:58:16.084Z,70.54
2023-01-09T09:00:44.471Z,70.58
2023-01-09T09:03:12.964Z,70.74
2023-01-09T09:05:41.698Z,70.76
2023-01-09T09:08:10.137Z,71.01
2023-01-09T09:10:38.835Z,70.96
2023-01-09T09:13:07.211Z,70.87
2023-01-09T09:15:35.501Z,70.95
2023-01-09T09:18:07.165Z,70.98
2023-01-09T09:20:38.201Z,70.95
2023-01-09T09:23:08.494Z,71.19
2023-01-09T09:25:38.736Z,70.86
2023-01-09T09:28:07.786Z,70.87
2023-01-09T09:30:38.182Z,70.65
2023-01-09T09:33:06.568Z,70.68
2023-01-09T09:35:35.462Z,70.86
2023-01-09T09:38:05.803Z,70.52
2023-01-09T09:41:02.125Z,70.18
2023-01-09T09:44:13.692Z,70.13
2023-01-09T09:46:54.243Z,69.64
2023-01-09T09:49:32.659Z,70.02
2023-01-09T09:52:06.770Z,69.57
2023-01-09T09:54:47.152Z,69.42
2023-01-09T09:57:22.164Z,69.82
2023-01-09T09:59:51.673Z,69.35
2023-01-09T10:02:33.348Z,69.19
2023-01-09T10:05:27.815Z,68.91
2023-01-09T10:08:14.955Z,68.70
2023-01-09T10:10:53.473Z,68.88
2023-01-09T10:13:43.855Z,68.88
2023-01-09T10:16:35.481Z,68.71
2023-01-09T10:19:24.932Z,68.50
2023-01-09T10:22:01.817Z,68.52
2023-01-09T10:24:44.425Z,68.23
2023-01-09T10:27:48.725Z,68.28
2023-01-09T10:30:31.645Z,68.16
2023-01-09T10:33:18.241Z,68.08
2023-01-09T10:35:58.603Z,68.23
2023-01-09T10:38:37.831Z,68.06
2023-01-09T10:41:12.966Z,68.06
2023-01-09T10:43:46.820Z,68.08
2023-01-09T10:46:42.244Z,67.81
2023-01-09T10:49:17.060Z,67.91
2023-01-09T10:51:45.289Z,67.84
2023-01-09T10:54:18.998Z,67.65
2023-01-09T10:56:59.050Z,67.91
2023-01-09T10:59:27.744Z,68.21
2023-01-09T11:01:56.297Z,68.16
2023-01-09T11:04:31.464Z,68.31
2023-01-09T11:07:22.201Z,68.27
2023-01-09T11:10:04.987Z,68.28
2023-01-09T11:12:35.220Z,68.13
2023-01-09T11:15:23.963Z,68.08
2023-01-09T11:17:52.131Z,68.38
2023-01-09T11:20:28.810Z,68.42
2023-01-09T11:22:58.707Z,68.41
2023-01-09T11:25:29.053Z,68.49
2023-01-09T11:28:05.590Z,68.47
2023-01-09T11:30:36.449Z,68.34
2023-01-09T11:33:26.952Z,68.33
2023-01-09T11:35:57.391Z,68.29
2023-01-09T11:38:26.622Z,68.53
2023-01-09T11:41:04.409Z,68.26
2023-01-09T11:43:38.896Z,68.02
2023-01-09T11:46:11.648Z,68.06
2023-01-09T11:48:54.887Z,68.07
2023-01-09T11:51:31.698Z,68.32
2023-01-09T11:54:12.462Z,68.17
2023-01-09T11:56:41.820Z,68.14
2023-01-09T11:59:26.726Z,67.94
2023-01-09T12:02:30.923Z,67.70
2023-01-09T12:05:27.357Z,67.19
2023-01-09T12:08:12.732Z,67.35
2023-01-09T12:10:53.083Z,67.43
2023-01-09T12:13:35.388Z,67.23
2023-01-09T12:16:45.510Z,67.05
2023-01-09T12:19:41.989Z,67.46
2023-01-09T12:22:28.450Z,67.45
2023-01-09T12:25:29.330Z,67.61
2023-01-09T12:28:16.171Z,67.90
2023-01-09T12:31:03.105Z,68.14
2023-01-09T12:33:47.631Z,68.33
2023-01-09T12:36:44.998Z,68.13
2023-01-09T12:39:44.674Z,68.44
2023-01-09T12:42:53.279Z,68.38
2023-01-09T12:45:42.076Z,68.47
2023-01-09T12:48:33.126Z,68.41
2023-01-09T12:51:27.920Z,68.60
2023-01-09T12:54:06.329Z,68.68
2023-01-09T12:56:41.267Z,68.67
2023-01-09T12:59:31.079Z,68.65
2023-01-09T13:02:33.210Z,68.69
2023-01-09T13:05:19.886Z,68.64
2023-01-09T13:07:55.024Z,68.24
2023-01-09T13:10:33.550Z,68.14
2023-01-09T13:13:11.756Z,68.30
2023-01-09T13:15:45.117Z,68.37
2023-01-09T13:18:27.554Z,68.26
2023-01-09T13:20:56.921Z,68.20
2023-01-09T13:23:44.174Z,68.23
2023-01-09T13:26:19.834Z,68.33
2023-01-09T13:28:57.329Z,68.37
2023-01-09T13:32:05.715Z,68.31
2023-01-09T13:34:37.416Z,68.26
2023-01-09T13:37:14.179Z,68.47
2023-01-09T13:39:42.550Z,68.28
2023-01-09T13:42:38.141Z,68.15
2023-01-09T13:45:18.907Z,68.38
2023-01-09T13:47:47.868Z,68.45
2023-01-09T13:50:27.526Z,68.47
2023-01-09T13:52:56.442Z,68.69
2023-01-09T13:55:29.174Z,68.87
2023-01-09T13:58:06.718Z,69.09
2023-01-09T14:00:35.017Z,69.31
2023-01-09T14:03:16.998Z,69.30
2023-01-09T14:05:45.802Z,69.43
2023-01-09T14:08:26.363Z,69.51
2023-01-09T14:10:58.127Z,69.64
2023-01-09T14:13:34.375Z,69.64
2023-01-09T14:16:15.480Z,69.79
2023-01-09T14:18:51.535Z,69.92
2023-01-09T14:21:20.824Z,69.93
2023-01-09T14:24:07.253Z,70.03
2023-01-09T14:26:56.290Z,70.16
2023-01-09T14:29:31.502Z,70.26
2023-01-09T14:32:30.901Z,70.41
2023-01-09T14:35:08.492Z,70.68
2023-01-09T14:37:40.701Z,70.64
2023-01-09T14:40:30.740Z,70.73
2023-01-09T14:43:08.750Z,70.84
2023-01-09T14:45:39.277Z,70.87
2023-01-09T14:48:12.303Z,70.97
2023-01-09T14:50:51.310Z,70.89
2023-01-09T14:53:31.862Z,70.95
2023-01-09T14:56:06.760Z,70.84
2023-01-09T14:58:36.557Z,70.65
2023-01-09T15:01:10.592Z,70.80
2023-01-09T15:03:49.511Z,70.83
2023-01-09T15:06:24.648Z,70.90
2023-01-09T15:09:22.136Z,70.97
2023-01-09T15:11:52.459Z,70.85
2023-01-09T15:14:40.311Z,70.94
2023-01-09T15:17:20.886Z,70.85
2023-01-09T15:19:49.552Z,70.86
2023-01-09T15:22:38.395Z,70.75
2023-01-09T15:25:39.675Z,70.76
2023-01-09T15:28:27.348Z,70.76
2023-01-09T15:31:01.371Z,70.55
2023-01-09T15:33:29.850Z,70.77
2023-01-09T15:36:00.399Z,70.93
2023-01-09T15:38:31.836Z,70.84
2023-01-09T15:41:05.137Z,70.82
2023-01-09T15:43:34.955Z,70.71
2023-01-09T15:46:03.381Z,70.75
2023-01-09T15:48:34.990Z,70.76
2023-01-09T15:51:06.138Z,70.67
2023-01-09T15:53:34.733Z,70.81
2023-01-09T15:56:24.311Z,70.71
2023-01-09T15:58:54.445Z,70.67
2023-01-09T16:01:32.574Z,70.66
2023-01-09T16:04:06.232Z,70.70
2023-01-09T16:06:37.986Z,70.81
2023-01-09T16:09:16.703Z,70.73
2023-01-09T16:11:54.104Z,70.79
2023-01-09T16:14:27.575Z,70.97
2023-01-09T16:17:01.510Z,71.03
2023-01-09T16:19:32.270Z,71.16
2023-01-09T16:22:03.350Z,71.19
2023-01-09T16:24:41.419Z,71.22
2023-01-09T16:27:27.249Z,71.37
2023-01-09T16:30:07.170Z,71.43
2023-01-09T16:32:46.028Z,71.52
2023-01-09T16:35:17.524Z,71.65
2023-01-09T16:37:46.207Z,71.66
2023-01-09T16:40:22.125Z,71.72
2023-01-09T16:43:08.274Z,71.83
2023-01-09T16:45:38.804Z,71.75
2023-01-09T16:48:15.781Z,71.85
2023-01-09T16:50:44.864Z,71.73
2023-01-09T16:53:19.751Z,71.85
2023-01-09T16:55:49.120Z,71.79
2023-01-09T16:58:36.388Z,71.81
2023-01-09T17:01:06.030Z,71.79
2023-01-09T17:03:34.521Z,71.85
2023-01-09T17:06:04.563Z,71.82
2023-01-09T17:08:36.099Z,71.77
2023-01-09T17:11:05.163Z,71.86
2023-01-09T17:13:33.581Z,71.95
2023-01-09T17:16:01.761Z,72.08
2023-01-09T17:18:30.257Z,72.27
2023-01-09T17:20:59.485Z,72.33
2023-01-09T17:23:28.975Z,72.41
2023-01-09T17:26:19.253Z,72.68
2023-01-09T17:28:50.704Z,72.83
2023-01-09T17:31:19.774Z,73.00
2023-01-09T17:33:49.523Z,73.15
2023-01-09T17:36:33.649Z,73.22
2023-01-09T17:39:02.662Z,73.24
2023-01-09T17:41:32.163Z,73.36
2023-01-09T17:44:00.663Z,73.38
2023-01-09T17:46:30.605Z,73.38
2023-01-09T17:48:59.617Z,73.58
2023-01-09T17:51:29.407Z,73.40
2023-01-09T17:53:58.560Z,73.57
2023-01-09T17:56:30.268Z,73.51
2023-01-09T17:58:58.944Z,73.45
2023-01-09T18:01:27.481Z,73.52
2023-01-09T18:03:56.324Z,73.47
2023-01-09T18:06:25.431Z,73.43
2023-01-09T18:08:53.706Z,73.39
2023-01-09T18:11:22.792Z,73.42
2023-01-09T18:13:53.878Z,73.43
2023-01-09T18:16:24.854Z,73.55
2023-01-09T18:18:55.043Z,73.45
2023-01-09T18:21:24.645Z,73.46
2023-01-09T18:23:53.232Z,73.45
2023-01-09T18:26:22.293Z,73.32
2023-01-09T18:29:00.896Z,73.31
2023-01-09T18:31:30.666Z,72.89
2023-01-09T18:34:02.650Z,72.86
2023-01-09T18:36:31.806Z,72.68
2023-01-09T18:39:02.197Z,72.47
2023-01-09T18:41:31.703Z,72.52
2023-01-09T18:44:01.388Z,72.20
2023-01-09T18:46:32.624Z,72.32
2023-01-09T18:49:03.211Z,72.15
2023-01-09T18:51:34.322Z,72.05
2023-01-09T18:54:03.139Z,71.64
2023-01-09T18:56:32.003Z,71.57
2023-01-09T18:59:00.495Z,71.36
2023-01-09T19:01:30.237Z,71.45
2023-01-09T19:04:00.091Z,71.40
2023-01-09T19:06:29.945Z,71.14
2023-01-09T19:08:59.213Z,71.13
2023-01-09T19:11:27.531Z,71.10
2023-01-09T19:13:56.237Z,71.01
2023-01-09T19:16:24.868Z,71.25
2023-01-09T19:18:53.100Z,71.23
2023-01-09T19:21:23.937Z,71.33
2023-01-09T19:23:52.315Z,71.13
2023-01-09T19:26:24.016Z,71.11
2023-01-09T19:28:57.854Z,70.97
2023-01-09T19:31:29.118Z,71.10
2023-01-09T19:33:58.848Z,70.98
2023-01-09T19:36:28.419Z,70.83
2023-01-09T19:39:01.309Z,70.92
2023-01-09T19:41:30.556Z,70.86
2023-01-09T19:44:00.145Z,70.92
2023-01-09T19:46:30.432Z,70.92
2023-01-09T19:48:59.190Z,71.03
2023-01-09T19:51:27.567Z,71.17
2023-01-09T19:56:35.814Z,71.33
2023-01-09T19:59:05.209Z,71.45
2023-01-09T20:01:39.818Z,71.32
2023-01-09T20:04:13.788Z,71.37
2023-01-09T20:06:49.706Z,71.60
2023-01-09T20:09:21.660Z,71.64
2023-01-09T20:11:49.749Z,71.66
2023-01-09T20:14:19.511Z,71.82
2023-01-09T20:16:48.861Z,71.72
2023-01-09T20:19:17.244Z,71.80
2023-01-09T20:21:46.407Z,71.94
2023-01-09T20:24:17.032Z,71.92
2023-01-09T20:26:48.955Z,72.00
2023-01-09T20:29:17.550Z,72.02
2023-01-09T20:31:46.668Z,71.98
2023-01-09T20:34:15.790Z,72.07
2023-01-09T20:36:44.354Z,72.20
2023-01-09T20:39:13.031Z,72.11
2023-01-09T20:41:41.520Z,72.22
2023-01-09T20:44:13.092Z,72.28
2023-01-09T20:46:44.934Z,72.19
2023-01-09T20:49:16.144Z,72.21
2023-01-09T20:51:47.738Z,72.42
2023-01-09T20:54:17.049Z,72.50
2023-01-09T20:56:45.324Z,72.61
2023-01-09T20:59:17.367Z,72.69
2023-01-09T21:01:45.781Z,73.04
2023-01-09T21:04:14.137Z,72.99
2023-01-09T21:06:42.920Z,72.99
2023-01-09T21:09:11.359Z,73.09
2023-01-09T21:11:39.718Z,73.29
2023-01-09T21:14:09.441Z,73.17
2023-01-09T21:16:38.006Z,73.20
2023-01-09T21:19:06.243Z,73.33
2023-01-09T21:21:34.400Z,73.27
2023-01-09T21:24:04.711Z,73.28
2023-01-09T21:26:33.002Z,73.29
2023-01-09T21:29:02.979Z,73.22
2023-01-09T21:31:35.651Z,73.08
2023-01-09T21:34:07.084Z,73.15
2023-01-09T21:36:36.539Z,72.89
2023-01-09T21:39:08.333Z,72.96
2023-01-09T21:41:55.230Z,72.67
2023-01-09T21:44:42.155Z,72.44
2023-01-09T21:47:10.525Z,71.98
2023-01-09T21:49:44.028Z,72.10
2023-01-09T21:52:14.269Z,72.14
2023-01-09T21:54:42.444Z,72.24
2023-01-09T21:57:11.529Z,71.97
2023-01-09T21:59:39.912Z,72.01
2023-01-09T22:02:12.093Z,72.07
2023-01-09T22:04:43.055Z,72.04
2023-01-09T22:07:11.313Z,72.03
2023-01-09T22:09:39.808Z,71.68
2023-01-09T22:12:09.039Z,71.63
2023-01-09T22:14:38.867Z,71.82
2023-01-09T22:17:07.916Z,71.69
2023-01-09T22:19:36.098Z,71.71
2023-01-09T22:22:07.560Z,71.68
2023-01-09T22:24:36.142Z,71.31
2023-01-09T22:27:04.851Z,70.88
2023-01-09T22:29:33.530Z,70.99
2023-01-09T22:32:02.312Z,70.88
2023-01-09T22:34:31.214Z,70.91
2023-01-09T22:36:59.992Z,70.83
2023-01-09T22:39:28.395Z,70.63
2023-01-09T22:41:56.881Z,70.79
2023-01-09T22:44:25.259Z,70.86
2023-01-09T22:46:53.852Z,70.95
2023-01-09T22:49:22.337Z,71.26
2023-01-09T22:51:50.725Z,71.30
2023-01-09T22:54:20.964Z,71.31
2023-01-09T22:56:50.293Z,71.23
2023-01-09T22:59:18.538Z,71.19
2023-01-09T23:01:46.961Z,71.12
2023-01-09T23:04:16.670Z,71.07
2023-01-09T23:06:45.136Z,71.25
2023-01-09T23:09:13.313Z,71.26
2023-01-09T23:12:00.410Z,71.09
2023-01-09T23:14:38.749Z,71.14
2023-01-09T23:17:09.924Z,71.21
2023-01-09T23:19:38.256Z,71.29
2023-01-09T23:22:06.744Z,71.29
2023-01-09T23:24:35.063Z,71.19
2023-01-09T23:27:04.528Z,71.38
2023-01-09T23:29:32.835Z,71.59
2023-01-09T23:32:01.436Z,71.40
2023-01-09T23:34:30.202Z,71.61
2023-01-09T23:36:58.888Z,71.42
2023-01-09T23:39:27.682Z,71.30
2023-01-09T23:42:14.187Z,71.53
2023-01-09T23:44:42.564Z,71.27
2023-01-09T23:47:10.745Z,71.26
2023-01-09T23:49:39.026Z,71.11
2023-01-09T23:52:08.757Z,71.19
2023-01-09T23:54:37.127Z,71.16
2023-01-09T23:57:05.716Z,71.34
2023-01-09T23:59:34.409Z,71.42
